Victoria — V7LN2 — position and weather

sailwx.info

Track history (hours):
 
Tides and Currents Weather Stations Pressure Air Temp Water Temp Dewpoint Dewpoint Depression Visibility Wind Speed Wind Dir Waves Ship Positions

Victoria

Last reported at 2017-Nov-19 07:48 UTC. Time now 2017-Dec-15 04:17 UTC.
Position N 37°29' E 025°56'.
Warning: this ship's position is 25 days out of date.

Length 200 m; draft 11.3 m.

Type: Cargo ship. MMSI: 538006304.

Date/timePositionNaut miles runAvg speedWind from/ knotsBaromVisibWave heightAir tempDewpointWater temp
2017-Nov-19 07:48N 37°29' E 025°56'413.4
2017-Nov-19 07:30N 37°33' E 025°53'713.5
2017-Nov-19 07:00N 37°39' E 025°50'613.1
2017-Nov-19 06:30N 37°45' E 025°47'  
2017-Nov-16 13:49N 44°26' E 037°24'413.3
2017-Nov-16 13:30N 44°28' E 037°29'21 2.1
2017-Nov-16 03:43N 44°34' E 037°57'0 0.0
2017-Nov-16 03:28N 44°34' E 037°57'0 0.0
2017-Nov-16 02:58N 44°34' E 037°57'0 0.0
2017-Nov-16 02:25N 44°34' E 037°57'0 0.0
2017-Nov-16 01:58N 44°34' E 037°57'0 0.0
2017-Nov-16 01:28N 44°34' E 037°57'0 0.1
2017-Nov-16 00:58N 44°34' E 037°57'0 0.0
2017-Nov-16 00:28N 44°34' E 037°57'0 0.1
2017-Nov-15 23:58N 44°34' E 037°57'0 0.0
2017-Nov-15 23:28N 44°34' E 037°57'0 0.0
2017-Nov-15 22:58N 44°34' E 037°57'0 0.0
2017-Nov-15 22:25N 44°34' E 037°57'0 0.1
2017-Nov-15 21:58N 44°34' E 037°57'0 0.0
2017-Nov-15 21:28N 44°34' E 037°57'0 0.1
2017-Nov-15 20:58N 44°34' E 037°57'0 0.0
2017-Nov-15 20:28N 44°34' E 037°57'0 0.0
2017-Nov-15 19:58N 44°34' E 037°57'0 0.0
2017-Nov-15 19:30N 44°34' E 037°57'0 0.0
2017-Nov-15 19:00N 44°34' E 037°57'0 0.0
2017-Nov-15 18:31N 44°34' E 037°57'0 0.1
2017-Nov-15 18:01N 44°34' E 037°57'0 0.1
2017-Nov-15 17:30N 44°34' E 037°57'2 4.4
2017-Nov-15 17:01N 44°33' E 037°54'5 9.5
2017-Nov-15 16:31N 44°37' E 037°49'3 6.9
2017-Nov-15 16:01N 44°40' E 037°50'4 8.2
2017-Nov-15 15:31N 44°44' E 037°48'0 0.9
2017-Nov-15 15:00N 44°44' E 037°47'0 0.1
2017-Nov-15 13:53N 44°44' E 037°47'0 0.0
2017-Nov-15 13:29N 44°44' E 037°47'0 0.0
2017-Nov-15 12:59N 44°44' E 037°47'0 0.0
2017-Nov-15 12:29N 44°44' E 037°47'0 0.0
2017-Nov-15 11:59N 44°44' E 037°47'0 0.0
2017-Nov-15 11:29N 44°44' E 037°47'0 0.0
2017-Nov-15 10:59N 44°44' E 037°47'0 0.0
2017-Nov-15 10:29N 44°44' E 037°47'0 0.0
2017-Nov-15 09:59N 44°44' E 037°47'0 0.0
2017-Nov-15 09:29N 44°44' E 037°47'0 0.0
2017-Nov-15 08:59N 44°44' E 037°47'0 0.0
2017-Nov-15 08:29N 44°44' E 037°47'0 0.0
2017-Nov-15 07:59N 44°44' E 037°47'0 0.0
2017-Nov-15 07:29N 44°44' E 037°47'0 0.0
2017-Nov-15 06:59N 44°44' E 037°47'0 0.0
2017-Nov-15 06:26N 44°44' E 037°47'0 0.0
2017-Nov-15 05:59N 44°44' E 037°47'0 0.0
2017-Nov-15 05:23N 44°44' E 037°47'0 0.0
2017-Nov-15 04:59N 44°44' E 037°47'0 0.0
2017-Nov-15 04:29N 44°44' E 037°47'0 0.0
2017-Nov-15 03:59N 44°44' E 037°47'0 0.0
2017-Nov-15 03:29N 44°44' E 037°47'0 0.0
2017-Nov-15 02:59N 44°44' E 037°47'0 0.0
2017-Nov-15 02:29N 44°44' E 037°47'0 0.0
2017-Nov-15 01:59N 44°44' E 037°47'0 0.0
2017-Nov-15 01:29N 44°44' E 037°47'0 0.0
2017-Nov-15 00:56N 44°44' E 037°47'0 0.0
2017-Nov-15 00:20N 44°44' E 037°47'0 0.0
2017-Nov-14 23:59N 44°44' E 037°47'0 0.0
2017-Nov-14 23:23N 44°44' E 037°47'0 0.0
2017-Nov-14 22:59N 44°44' E 037°47'0 0.0
2017-Nov-14 22:29N 44°44' E 037°47'0 0.0
2017-Nov-14 21:59N 44°44' E 037°47'0 0.0
2017-Nov-14 21:29N 44°44' E 037°47'0 0.0
2017-Nov-14 20:56N 44°44' E 037°47'0 0.0
2017-Nov-14 20:29N 44°44' E 037°47'0 0.0
2017-Nov-14 19:59N 44°44' E 037°47'0 0.0
2017-Nov-14 19:29N 44°44' E 037°47'0 0.0
2017-Nov-14 18:59N 44°44' E 037°47'0 0.0
2017-Nov-14 18:26N 44°44' E 037°47'0 0.0
2017-Nov-14 17:59N 44°44' E 037°47'0 0.0
2017-Nov-14 17:29N 44°44' E 037°47'0 0.0
2017-Nov-14 16:59N 44°44' E 037°47'0 0.0
2017-Nov-14 16:29N 44°44' E 037°47'0 0.0
2017-Nov-14 15:59N 44°44' E 037°47'0 0.0
2017-Nov-14 15:29N 44°44' E 037°47'0 0.0
2017-Nov-14 14:56N 44°44' E 037°47'0 0.0
2017-Nov-14 14:29N 44°44' E 037°47'0 0.0
2017-Nov-14 13:59N 44°44' E 037°47'0 0.0
2017-Nov-14 13:29N 44°44' E 037°47'0 0.0
2017-Nov-14 12:59N 44°44' E 037°47'0 0.0
2017-Nov-14 12:29N 44°44' E 037°47'0 0.0
2017-Nov-14 11:59N 44°44' E 037°47'0 0.0
2017-Nov-14 11:29N 44°44' E 037°47'0 0.0
2017-Nov-14 10:59N 44°44' E 037°47'0 0.0
2017-Nov-14 10:29N 44°44' E 037°47'0 0.0
2017-Nov-14 09:59N 44°44' E 037°47'0 0.0
2017-Nov-14 09:29N 44°44' E 037°47'0 0.0
2017-Nov-14 08:59N 44°44' E 037°47'0 0.0
2017-Nov-14 08:26N 44°44' E 037°47'0 0.0
2017-Nov-14 07:59N 44°44' E 037°47'0 0.0
2017-Nov-14 07:29N 44°44' E 037°47'0 0.0
2017-Nov-14 06:59N 44°44' E 037°47'0 0.0
2017-Nov-14 06:29N 44°44' E 037°47'0 0.0
2017-Nov-14 05:59N 44°44' E 037°47'0 0.0
2017-Nov-14 05:29N 44°44' E 037°47'0 0.0
2017-Nov-14 04:59N 44°44' E 037°47'0 0.0
2017-Nov-14 04:29N 44°44' E 037°47'0 0.0
2017-Nov-14 03:59N 44°44' E 037°47'0 0.0
2017-Nov-14 03:29N 44°44' E 037°47'0 0.0
2017-Nov-14 02:59N 44°44' E 037°47'0 0.0
2017-Nov-14 02:29N 44°44' E 037°47'0 0.0
2017-Nov-14 01:59N 44°44' E 037°47'0 0.0
2017-Nov-14 01:29N 44°44' E 037°47'0 0.0
2017-Nov-14 00:59N 44°44' E 037°47'0 0.0
2017-Nov-14 00:29N 44°44' E 037°47'0 0.0
2017-Nov-13 23:59N 44°44' E 037°47'0 0.0
2017-Nov-13 23:29N 44°44' E 037°47'0 0.0
2017-Nov-13 22:59N 44°44' E 037°47'0 0.0
2017-Nov-13 22:29N 44°44' E 037°47'0 0.0
2017-Nov-13 21:59N 44°44' E 037°47'12 0.6
2017-Nov-13 01:59N 44°34' E 037°57'0 0.0
2017-Nov-13 01:29N 44°34' E 037°57'0 0.0
2017-Nov-13 00:59N 44°34' E 037°57'0 0.0
2017-Nov-13 00:26N 44°34' E 037°57'0 0.0
2017-Nov-12 23:59N 44°34' E 037°57'0 0.0
2017-Nov-12 23:26N 44°34' E 037°57'0 0.1
2017-Nov-12 22:59N 44°34' E 037°57'0 0.0
2017-Nov-12 22:29N 44°34' E 037°57'0 0.1
2017-Nov-12 21:59N 44°34' E 037°57'0 0.0
2017-Nov-12 21:26N 44°34' E 037°57'0 0.0
2017-Nov-12 20:59N 44°34' E 037°57'0 0.0
2017-Nov-12 20:29N 44°34' E 037°57'0 0.0
2017-Nov-12 19:59N 44°34' E 037°57'0 0.0
2017-Nov-12 19:26N 44°34' E 037°57'0 0.0
2017-Nov-12 18:59N 44°34' E 037°57'0 0.0
2017-Nov-12 18:29N 44°34' E 037°57'0 0.0
2017-Nov-12 17:59N 44°34' E 037°57'0 0.0
2017-Nov-12 17:29N 44°34' E 037°57'0 0.0
2017-Nov-12 16:59N 44°34' E 037°57'0 0.0
2017-Nov-12 16:29N 44°34' E 037°57'0 0.0
2017-Nov-12 15:59N 44°34' E 037°57'0 0.0
2017-Nov-12 15:29N 44°34' E 037°57'0 0.0
2017-Nov-12 14:59N 44°34' E 037°57'0 0.0
2017-Nov-12 14:29N 44°34' E 037°57'0 0.0
2017-Nov-12 13:59N 44°34' E 037°57'0 0.0
2017-Nov-12 13:29N 44°34' E 037°57'0 0.0
2017-Nov-12 12:56N 44°34' E 037°57'0 0.0
2017-Nov-12 12:29N 44°34' E 037°57'0 0.0
2017-Nov-12 11:59N 44°34' E 037°57'0 0.0
2017-Nov-12 11:29N 44°34' E 037°57'0 0.0
2017-Nov-12 10:59N 44°34' E 037°57'0 0.0
2017-Nov-12 10:29N 44°34' E 037°57'0 0.0
2017-Nov-12 09:59N 44°34' E 037°57'0 0.0
2017-Nov-12 09:29N 44°34' E 037°57'0 0.0
2017-Nov-12 08:56N 44°34' E 037°57'0 0.1
2017-Nov-12 08:26N 44°34' E 037°57'0 0.2
2017-Nov-12 07:59N 44°34' E 037°57'0 0.1
2017-Nov-12 07:29N 44°34' E 037°57'0 0.0
2017-Nov-12 06:59N 44°34' E 037°57'0 0.0
2017-Nov-12 06:29N 44°34' E 037°57'0 0.0
2017-Nov-12 05:59N 44°34' E 037°57'0 0.0
2017-Nov-12 05:29N 44°34' E 037°57'0 0.0
2017-Nov-12 04:59N 44°34' E 037°57'0 0.0
2017-Nov-12 04:29N 44°34' E 037°57'0 0.0
2017-Nov-12 03:59N 44°34' E 037°57'0 0.0
2017-Nov-12 03:29N 44°34' E 037°57'0 0.0
2017-Nov-12 02:59N 44°34' E 037°57'0 0.0
2017-Nov-12 02:29N 44°34' E 037°57'0 0.0
2017-Nov-12 01:59N 44°34' E 037°57'0 0.0
2017-Nov-12 01:29N 44°34' E 037°57'0 0.0
2017-Nov-12 00:59N 44°34' E 037°57'0 0.0
2017-Nov-12 00:29N 44°34' E 037°57'0 0.0
2017-Nov-11 23:59N 44°34' E 037°57'0 0.0
2017-Nov-11 23:29N 44°34' E 037°57'0 0.0
2017-Nov-11 22:59N 44°34' E 037°57'0 0.0
2017-Nov-11 22:29N 44°34' E 037°57'0 0.0
2017-Nov-11 21:59N 44°34' E 037°57'0 0.0
2017-Nov-11 21:29N 44°34' E 037°57'0 0.0
2017-Nov-11 20:59N 44°34' E 037°57'0 0.0
2017-Nov-11 20:29N 44°34' E 037°57'0 0.0
2017-Nov-11 19:59N 44°34' E 037°57'0 0.0
2017-Nov-11 19:29N 44°34' E 037°57'0 0.0
2017-Nov-11 18:59N 44°34' E 037°57'0 0.0
2017-Nov-11 18:29N 44°34' E 037°57'0 0.0
2017-Nov-11 17:59N 44°34' E 037°57'0 0.0
2017-Nov-11 17:29N 44°34' E 037°57'0 0.0
2017-Nov-11 16:59N 44°34' E 037°57'0 0.0
2017-Nov-11 16:23N 44°34' E 037°57'0 0.0
2017-Nov-11 15:59N 44°34' E 037°57'0 0.0
2017-Nov-11 15:29N 44°34' E 037°57'0 0.1
2017-Nov-11 14:59N 44°34' E 037°57'0 0.0
2017-Nov-11 14:29N 44°34' E 037°57'0 0.0
2017-Nov-11 13:59N 44°34' E 037°57'0 0.1
2017-Nov-11 13:29N 44°34' E 037°57'0 0.3
2017-Nov-11 12:59N 44°34' E 037°57'0 0.0
2017-Nov-11 12:26N 44°34' E 037°57'0 0.0
2017-Nov-11 11:59N 44°34' E 037°57'0 0.0
2017-Nov-11 11:29N 44°34' E 037°57'0 0.0
2017-Nov-11 10:59N 44°34' E 037°57'0 0.0
2017-Nov-11 10:29N 44°34' E 037°57'0 0.0
2017-Nov-11 09:59N 44°34' E 037°57'0 0.0
2017-Nov-11 09:29N 44°34' E 037°57'0 0.0
2017-Nov-11 08:59N 44°34' E 037°57'0 0.0
2017-Nov-11 08:26N 44°34' E 037°57'0 0.0
2017-Nov-11 07:59N 44°34' E 037°57'0 0.0
2017-Nov-11 07:29N 44°34' E 037°57'0 0.0
2017-Nov-11 06:59N 44°34' E 037°57'0 0.0
2017-Nov-11 06:29N 44°34' E 037°57'0 0.0
2017-Nov-11 05:59N 44°34' E 037°57'0 0.0
2017-Nov-11 05:29N 44°34' E 037°57'0 0.0
2017-Nov-11 04:59N 44°34' E 037°57'0 0.0
2017-Nov-11 04:17N 44°34' E 037°57'0 0.0
2017-Nov-11 03:59N 44°34' E 037°57'0 0.0
2017-Nov-11 03:29N 44°34' E 037°57'0 0.0
2017-Nov-11 02:59N 44°34' E 037°57'0 0.0
2017-Nov-11 02:29N 44°34' E 037°57'0 0.0
2017-Nov-11 01:59N 44°34' E 037°57'0 0.0
2017-Nov-11 01:29N 44°34' E 037°57'0 0.0
2017-Nov-11 00:59N 44°34' E 037°57'0 0.0
2017-Nov-11 00:29N 44°34' E 037°57'0 0.1
2017-Nov-10 23:59N 44°34' E 037°57'0 0.0
2017-Nov-10 23:29N 44°34' E 037°57'0 0.1
2017-Nov-10 22:59N 44°34' E 037°57'0 0.0
2017-Nov-10 22:29N 44°34' E 037°57'0 0.1
2017-Nov-10 21:59N 44°34' E 037°57'0 0.0
2017-Nov-10 21:29N 44°34' E 037°57'0 0.0
2017-Nov-10 20:59N 44°34' E 037°57'0 0.0
2017-Nov-10 20:29N 44°34' E 037°57'0 0.0
2017-Nov-10 19:53N 44°34' E 037°57'0 0.0
2017-Nov-10 19:26N 44°34' E 037°57'0 0.0
2017-Nov-10 18:59N 44°34' E 037°57'0 0.0
2017-Nov-10 18:29N 44°34' E 037°57'0 0.1
2017-Nov-10 17:59N 44°34' E 037°57'0 0.1
2017-Nov-10 17:26N 44°34' E 037°57'0 0.0
2017-Nov-10 16:59N 44°34' E 037°57'0 0.1
2017-Nov-10 16:29N 44°34' E 037°57'0 0.0
2017-Nov-10 15:59N 44°34' E 037°57'0 0.0
2017-Nov-10 15:26N 44°34' E 037°57'0 0.0
2017-Nov-10 14:56N 44°34' E 037°57'0 0.0
2017-Nov-10 14:29N 44°34' E 037°57'0 0.0
2017-Nov-10 13:59N 44°34' E 037°57'0 0.0
2017-Nov-10 13:20N 44°34' E 037°57'0 0.0
2017-Nov-10 12:59N 44°34' E 037°57'0 0.0
2017-Nov-10 12:29N 44°34' E 037°57'0 0.0
2017-Nov-10 11:59N 44°34' E 037°57'0 0.0
2017-Nov-10 11:29N 44°34' E 037°57'0 0.0
2017-Nov-10 10:59N 44°34' E 037°57'0 0.0
2017-Nov-10 10:23N 44°34' E 037°57'0 0.0
2017-Nov-10 09:59N 44°34' E 037°57'0 0.0
2017-Nov-10 09:29N 44°34' E 037°57'0 0.0
2017-Nov-10 08:59N 44°34' E 037°57'0 0.0
2017-Nov-10 08:29N 44°34' E 037°57'0 0.0
2017-Nov-10 07:59N 44°34' E 037°57'0 0.0
2017-Nov-10 07:29N 44°34' E 037°57'0 0.0
2017-Nov-10 06:59N 44°34' E 037°57'0 0.0
2017-Nov-10 06:29N 44°34' E 037°57'0 0.0
2017-Nov-10 05:59N 44°34' E 037°57'0 0.0
2017-Nov-10 05:29N 44°34' E 037°57'0 0.0
2017-Nov-10 04:59N 44°34' E 037°57'0 0.0
2017-Nov-10 04:29N 44°34' E 037°57'0 0.0
2017-Nov-10 03:59N 44°34' E 037°57'0 0.0
2017-Nov-10 03:29N 44°34' E 037°57'0 0.0
2017-Nov-10 02:56N 44°34' E 037°57'0 0.0
2017-Nov-10 02:29N 44°34' E 037°57'0 0.0
2017-Nov-10 01:59N 44°34' E 037°57'0 0.0
2017-Nov-10 01:29N 44°34' E 037°57'0 0.0
2017-Nov-10 00:59N 44°34' E 037°57'0 0.0
2017-Nov-10 00:26N 44°34' E 037°57'0 0.0
2017-Nov-09 23:59N 44°34' E 037°57'0 0.0
2017-Nov-09 23:29N 44°34' E 037°57'0 0.0
2017-Nov-09 22:59N 44°34' E 037°57'0 0.0
2017-Nov-09 22:26N 44°34' E 037°57'0 0.0
2017-Nov-09 21:59N 44°34' E 037°57'0 0.1
2017-Nov-09 21:26N 44°34' E 037°57'0 0.0
2017-Nov-09 20:59N 44°34' E 037°57'0 0.0
2017-Nov-09 20:29N 44°34' E 037°57'0 0.0
2017-Nov-09 19:50N 44°34' E 037°57'0 0.0
2017-Nov-09 19:26N 44°34' E 037°57'0 0.0
2017-Nov-09 18:59N 44°34' E 037°57'0 0.0
2017-Nov-09 18:29N 44°34' E 037°57'0 0.0
2017-Nov-09 17:56N 44°34' E 037°57'0 0.0
2017-Nov-09 17:29N 44°34' E 037°57'0 0.0
2017-Nov-09 16:59N 44°34' E 037°57'0 0.0
2017-Nov-09 16:29N 44°34' E 037°57'0 0.0
2017-Nov-09 15:59N 44°34' E 037°57'0 0.0
2017-Nov-09 15:29N 44°34' E 037°57'0 0.0
2017-Nov-09 14:59N 44°34' E 037°57'0 0.0
2017-Nov-09 14:29N 44°34' E 037°57'0 0.0
2017-Nov-09 13:59N 44°34' E 037°57'0 0.0
2017-Nov-09 13:29N 44°34' E 037°57'0 0.0
2017-Nov-09 12:59N 44°34' E 037°57'0 0.0
2017-Nov-09 12:29N 44°34' E 037°57'0 0.0
2017-Nov-09 11:56N 44°34' E 037°57'0 0.0
2017-Nov-09 11:29N 44°34' E 037°57'0 0.0
2017-Nov-09 10:56N 44°34' E 037°57'0 0.0
2017-Nov-09 10:29N 44°34' E 037°57'0 0.0
2017-Nov-09 09:59N 44°34' E 037°57'0 0.0
2017-Nov-09 09:29N 44°34' E 037°57'0 0.0
2017-Nov-09 08:59N 44°34' E 037°57'0 0.0
2017-Nov-09 08:29N 44°34' E 037°57'0 0.0
2017-Nov-09 07:59N 44°34' E 037°57'  
Track history (hours):
 
Tides and Currents Weather Stations Pressure Air Temp Water Temp Dewpoint Dewpoint Depression Visibility Wind Speed Wind Dir Waves Ship Positions

Victoria

Last reported at 2017-Nov-19 07:48 UTC. Time now 2017-Dec-15 04:17 UTC.
Position N 37°29' E 025°56'.
Warning: this ship's position is 25 days out of date.

Length 200 m; draft 11.3 m.

Type: Cargo ship. MMSI: 538006304.

Date/timePositionNaut miles runAvg speedWind from/ knotsBaromVisibWave heightAir tempDewpointWater temp
2017-Nov-19 07:48N 37°29' E 025°56'413.4
2017-Nov-19 07:30N 37°33' E 025°53'713.5
2017-Nov-19 07:00N 37°39' E 025°50'613.1
2017-Nov-19 06:30N 37°45' E 025°47'  
2017-Nov-16 13:49N 44°26' E 037°24'413.3
2017-Nov-16 13:30N 44°28' E 037°29'21 2.1
2017-Nov-16 03:43N 44°34' E 037°57'0 0.0
2017-Nov-16 03:28N 44°34' E 037°57'0 0.0
2017-Nov-16 02:58N 44°34' E 037°57'0 0.0
2017-Nov-16 02:25N 44°34' E 037°57'0 0.0
2017-Nov-16 01:58N 44°34' E 037°57'0 0.0
2017-Nov-16 01:28N 44°34' E 037°57'0 0.1
2017-Nov-16 00:58N 44°34' E 037°57'0 0.0
2017-Nov-16 00:28N 44°34' E 037°57'0 0.1
2017-Nov-15 23:58N 44°34' E 037°57'0 0.0
2017-Nov-15 23:28N 44°34' E 037°57'0 0.0
2017-Nov-15 22:58N 44°34' E 037°57'0 0.0
2017-Nov-15 22:25N 44°34' E 037°57'0 0.1
2017-Nov-15 21:58N 44°34' E 037°57'0 0.0
2017-Nov-15 21:28N 44°34' E 037°57'0 0.1
2017-Nov-15 20:58N 44°34' E 037°57'0 0.0
2017-Nov-15 20:28N 44°34' E 037°57'0 0.0
2017-Nov-15 19:58N 44°34' E 037°57'0 0.0
2017-Nov-15 19:30N 44°34' E 037°57'0 0.0
2017-Nov-15 19:00N 44°34' E 037°57'0 0.0
2017-Nov-15 18:31N 44°34' E 037°57'0 0.1
2017-Nov-15 18:01N 44°34' E 037°57'0 0.1
2017-Nov-15 17:30N 44°34' E 037°57'2 4.4
2017-Nov-15 17:01N 44°33' E 037°54'5 9.5
2017-Nov-15 16:31N 44°37' E 037°49'3 6.9
2017-Nov-15 16:01N 44°40' E 037°50'4 8.2
2017-Nov-15 15:31N 44°44' E 037°48'0 0.9
2017-Nov-15 15:00N 44°44' E 037°47'0 0.1
2017-Nov-15 13:53N 44°44' E 037°47'0 0.0
2017-Nov-15 13:29N 44°44' E 037°47'0 0.0
2017-Nov-15 12:59N 44°44' E 037°47'0 0.0
2017-Nov-15 12:29N 44°44' E 037°47'0 0.0
2017-Nov-15 11:59N 44°44' E 037°47'0 0.0
2017-Nov-15 11:29N 44°44' E 037°47'0 0.0
2017-Nov-15 10:59N 44°44' E 037°47'0 0.0
2017-Nov-15 10:29N 44°44' E 037°47'0 0.0
2017-Nov-15 09:59N 44°44' E 037°47'0 0.0
2017-Nov-15 09:29N 44°44' E 037°47'0 0.0
2017-Nov-15 08:59N 44°44' E 037°47'0 0.0
2017-Nov-15 08:29N 44°44' E 037°47'0 0.0
2017-Nov-15 07:59N 44°44' E 037°47'0 0.0
2017-Nov-15 07:29N 44°44' E 037°47'0 0.0
2017-Nov-15 06:59N 44°44' E 037°47'0 0.0
2017-Nov-15 06:26N 44°44' E 037°47'0 0.0
2017-Nov-15 05:59N 44°44' E 037°47'0 0.0
2017-Nov-15 05:23N 44°44' E 037°47'0 0.0
2017-Nov-15 04:59N 44°44' E 037°47'0 0.0
2017-Nov-15 04:29N 44°44' E 037°47'0 0.0
2017-Nov-15 03:59N 44°44' E 037°47'0 0.0
2017-Nov-15 03:29N 44°44' E 037°47'0 0.0
2017-Nov-15 02:59N 44°44' E 037°47'0 0.0
2017-Nov-15 02:29N 44°44' E 037°47'0 0.0
2017-Nov-15 01:59N 44°44' E 037°47'0 0.0
2017-Nov-15 01:29N 44°44' E 037°47'0 0.0
2017-Nov-15 00:56N 44°44' E 037°47'0 0.0
2017-Nov-15 00:20N 44°44' E 037°47'0 0.0
2017-Nov-14 23:59N 44°44' E 037°47'0 0.0
2017-Nov-14 23:23N 44°44' E 037°47'0 0.0
2017-Nov-14 22:59N 44°44' E 037°47'0 0.0
2017-Nov-14 22:29N 44°44' E 037°47'0 0.0
2017-Nov-14 21:59N 44°44' E 037°47'0 0.0
2017-Nov-14 21:29N 44°44' E 037°47'0 0.0
2017-Nov-14 20:56N 44°44' E 037°47'0 0.0
2017-Nov-14 20:29N 44°44' E 037°47'0 0.0
2017-Nov-14 19:59N 44°44' E 037°47'0 0.0
2017-Nov-14 19:29N 44°44' E 037°47'0 0.0
2017-Nov-14 18:59N 44°44' E 037°47'0 0.0
2017-Nov-14 18:26N 44°44' E 037°47'0 0.0
2017-Nov-14 17:59N 44°44' E 037°47'0 0.0
2017-Nov-14 17:29N 44°44' E 037°47'0 0.0
2017-Nov-14 16:59N 44°44' E 037°47'0 0.0
2017-Nov-14 16:29N 44°44' E 037°47'0 0.0
2017-Nov-14 15:59N 44°44' E 037°47'0 0.0
2017-Nov-14 15:29N 44°44' E 037°47'0 0.0
2017-Nov-14 14:56N 44°44' E 037°47'0 0.0
2017-Nov-14 14:29N 44°44' E 037°47'0 0.0
2017-Nov-14 13:59N 44°44' E 037°47'0 0.0
2017-Nov-14 13:29N 44°44' E 037°47'0 0.0
2017-Nov-14 12:59N 44°44' E 037°47'0 0.0
2017-Nov-14 12:29N 44°44' E 037°47'0 0.0
2017-Nov-14 11:59N 44°44' E 037°47'0 0.0
2017-Nov-14 11:29N 44°44' E 037°47'0 0.0
2017-Nov-14 10:59N 44°44' E 037°47'0 0.0
2017-Nov-14 10:29N 44°44' E 037°47'0 0.0
2017-Nov-14 09:59N 44°44' E 037°47'0 0.0
2017-Nov-14 09:29N 44°44' E 037°47'0 0.0
2017-Nov-14 08:59N 44°44' E 037°47'0 0.0
2017-Nov-14 08:26N 44°44' E 037°47'0 0.0
2017-Nov-14 07:59N 44°44' E 037°47'0 0.0
2017-Nov-14 07:29N 44°44' E 037°47'0 0.0
2017-Nov-14 06:59N 44°44' E 037°47'0 0.0
2017-Nov-14 06:29N 44°44' E 037°47'0 0.0
2017-Nov-14 05:59N 44°44' E 037°47'0 0.0
2017-Nov-14 05:29N 44°44' E 037°47'0 0.0
2017-Nov-14 04:59N 44°44' E 037°47'0 0.0
2017-Nov-14 04:29N 44°44' E 037°47'0 0.0
2017-Nov-14 03:59N 44°44' E 037°47'0 0.0
2017-Nov-14 03:29N 44°44' E 037°47'0 0.0
2017-Nov-14 02:59N 44°44' E 037°47'0 0.0
2017-Nov-14 02:29N 44°44' E 037°47'0 0.0
2017-Nov-14 01:59N 44°44' E 037°47'0 0.0
2017-Nov-14 01:29N 44°44' E 037°47'0 0.0
2017-Nov-14 00:59N 44°44' E 037°47'0 0.0
2017-Nov-14 00:29N 44°44' E 037°47'0 0.0
2017-Nov-13 23:59N 44°44' E 037°47'0 0.0
2017-Nov-13 23:29N 44°44' E 037°47'0 0.0
2017-Nov-13 22:59N 44°44' E 037°47'0 0.0
2017-Nov-13 22:29N 44°44' E 037°47'0 0.0
2017-Nov-13 21:59N 44°44' E 037°47'12 0.6
2017-Nov-13 01:59N 44°34' E 037°57'0 0.0
2017-Nov-13 01:29N 44°34' E 037°57'0 0.0
2017-Nov-13 00:59N 44°34' E 037°57'0 0.0
2017-Nov-13 00:26N 44°34' E 037°57'0 0.0
2017-Nov-12 23:59N 44°34' E 037°57'0 0.0
2017-Nov-12 23:26N 44°34' E 037°57'0 0.1
2017-Nov-12 22:59N 44°34' E 037°57'0 0.0
2017-Nov-12 22:29N 44°34' E 037°57'0 0.1
2017-Nov-12 21:59N 44°34' E 037°57'0 0.0
2017-Nov-12 21:26N 44°34' E 037°57'0 0.0
2017-Nov-12 20:59N 44°34' E 037°57'0 0.0
2017-Nov-12 20:29N 44°34' E 037°57'0 0.0
2017-Nov-12 19:59N 44°34' E 037°57'0 0.0
2017-Nov-12 19:26N 44°34' E 037°57'0 0.0
2017-Nov-12 18:59N 44°34' E 037°57'0 0.0
2017-Nov-12 18:29N 44°34' E 037°57'0 0.0
2017-Nov-12 17:59N 44°34' E 037°57'0 0.0
2017-Nov-12 17:29N 44°34' E 037°57'0 0.0
2017-Nov-12 16:59N 44°34' E 037°57'0 0.0
2017-Nov-12 16:29N 44°34' E 037°57'0 0.0
2017-Nov-12 15:59N 44°34' E 037°57'0 0.0
2017-Nov-12 15:29N 44°34' E 037°57'0 0.0
2017-Nov-12 14:59N 44°34' E 037°57'0 0.0
2017-Nov-12 14:29N 44°34' E 037°57'0 0.0
2017-Nov-12 13:59N 44°34' E 037°57'0 0.0
2017-Nov-12 13:29N 44°34' E 037°57'0 0.0
2017-Nov-12 12:56N 44°34' E 037°57'0 0.0
2017-Nov-12 12:29N 44°34' E 037°57'0 0.0
2017-Nov-12 11:59N 44°34' E 037°57'0 0.0
2017-Nov-12 11:29N 44°34' E 037°57'0 0.0
2017-Nov-12 10:59N 44°34' E 037°57'0 0.0
2017-Nov-12 10:29N 44°34' E 037°57'0 0.0
2017-Nov-12 09:59N 44°34' E 037°57'0 0.0
2017-Nov-12 09:29N 44°34' E 037°57'0 0.0
2017-Nov-12 08:56N 44°34' E 037°57'0 0.1
2017-Nov-12 08:26N 44°34' E 037°57'0 0.2
2017-Nov-12 07:59N 44°34' E 037°57'0 0.1
2017-Nov-12 07:29N 44°34' E 037°57'0 0.0
2017-Nov-12 06:59N 44°34' E 037°57'0 0.0
2017-Nov-12 06:29N 44°34' E 037°57'0 0.0
2017-Nov-12 05:59N 44°34' E 037°57'0 0.0
2017-Nov-12 05:29N 44°34' E 037°57'0 0.0
2017-Nov-12 04:59N 44°34' E 037°57'0 0.0
2017-Nov-12 04:29N 44°34' E 037°57'0 0.0
2017-Nov-12 03:59N 44°34' E 037°57'0 0.0
2017-Nov-12 03:29N 44°34' E 037°57'0 0.0
2017-Nov-12 02:59N 44°34' E 037°57'0 0.0
2017-Nov-12 02:29N 44°34' E 037°57'0 0.0
2017-Nov-12 01:59N 44°34' E 037°57'0 0.0
2017-Nov-12 01:29N 44°34' E 037°57'0 0.0
2017-Nov-12 00:59N 44°34' E 037°57'0 0.0
2017-Nov-12 00:29N 44°34' E 037°57'0 0.0
2017-Nov-11 23:59N 44°34' E 037°57'0 0.0
2017-Nov-11 23:29N 44°34' E 037°57'0 0.0
2017-Nov-11 22:59N 44°34' E 037°57'0 0.0
2017-Nov-11 22:29N 44°34' E 037°57'0 0.0
2017-Nov-11 21:59N 44°34' E 037°57'0 0.0
2017-Nov-11 21:29N 44°34' E 037°57'0 0.0
2017-Nov-11 20:59N 44°34' E 037°57'0 0.0
2017-Nov-11 20:29N 44°34' E 037°57'0 0.0
2017-Nov-11 19:59N 44°34' E 037°57'0 0.0
2017-Nov-11 19:29N 44°34' E 037°57'0 0.0
2017-Nov-11 18:59N 44°34' E 037°57'0 0.0
2017-Nov-11 18:29N 44°34' E 037°57'0 0.0
2017-Nov-11 17:59N 44°34' E 037°57'0 0.0
2017-Nov-11 17:29N 44°34' E 037°57'0 0.0
2017-Nov-11 16:59N 44°34' E 037°57'0 0.0
2017-Nov-11 16:23N 44°34' E 037°57'0 0.0
2017-Nov-11 15:59N 44°34' E 037°57'0 0.0
2017-Nov-11 15:29N 44°34' E 037°57'0 0.1
2017-Nov-11 14:59N 44°34' E 037°57'0 0.0
2017-Nov-11 14:29N 44°34' E 037°57'0 0.0
2017-Nov-11 13:59N 44°34' E 037°57'0 0.1
2017-Nov-11 13:29N 44°34' E 037°57'0 0.3
2017-Nov-11 12:59N 44°34' E 037°57'0 0.0
2017-Nov-11 12:26N 44°34' E 037°57'0 0.0
2017-Nov-11 11:59N 44°34' E 037°57'0 0.0
2017-Nov-11 11:29N 44°34' E 037°57'0 0.0
2017-Nov-11 10:59N 44°34' E 037°57'0 0.0
2017-Nov-11 10:29N 44°34' E 037°57'0 0.0
2017-Nov-11 09:59N 44°34' E 037°57'0 0.0
2017-Nov-11 09:29N 44°34' E 037°57'0 0.0
2017-Nov-11 08:59N 44°34' E 037°57'0 0.0
2017-Nov-11 08:26N 44°34' E 037°57'0 0.0
2017-Nov-11 07:59N 44°34' E 037°57'0 0.0
2017-Nov-11 07:29N 44°34' E 037°57'0 0.0
2017-Nov-11 06:59N 44°34' E 037°57'0 0.0
2017-Nov-11 06:29N 44°34' E 037°57'0 0.0
2017-Nov-11 05:59N 44°34' E 037°57'0 0.0
2017-Nov-11 05:29N 44°34' E 037°57'0 0.0
2017-Nov-11 04:59N 44°34' E 037°57'0 0.0
2017-Nov-11 04:17N 44°34' E 037°57'0 0.0
2017-Nov-11 03:59N 44°34' E 037°57'0 0.0
2017-Nov-11 03:29N 44°34' E 037°57'0 0.0
2017-Nov-11 02:59N 44°34' E 037°57'0 0.0
2017-Nov-11 02:29N 44°34' E 037°57'0 0.0
2017-Nov-11 01:59N 44°34' E 037°57'0 0.0
2017-Nov-11 01:29N 44°34' E 037°57'0 0.0
2017-Nov-11 00:59N 44°34' E 037°57'0 0.0
2017-Nov-11 00:29N 44°34' E 037°57'0 0.1
2017-Nov-10 23:59N 44°34' E 037°57'0 0.0
2017-Nov-10 23:29N 44°34' E 037°57'0 0.1
2017-Nov-10 22:59N 44°34' E 037°57'0 0.0
2017-Nov-10 22:29N 44°34' E 037°57'0 0.1
2017-Nov-10 21:59N 44°34' E 037°57'0 0.0
2017-Nov-10 21:29N 44°34' E 037°57'0 0.0
2017-Nov-10 20:59N 44°34' E 037°57'0 0.0
2017-Nov-10 20:29N 44°34' E 037°57'0 0.0
2017-Nov-10 19:53N 44°34' E 037°57'0 0.0
2017-Nov-10 19:26N 44°34' E 037°57'0 0.0
2017-Nov-10 18:59N 44°34' E 037°57'0 0.0
2017-Nov-10 18:29N 44°34' E 037°57'0 0.1
2017-Nov-10 17:59N 44°34' E 037°57'0 0.1
2017-Nov-10 17:26N 44°34' E 037°57'0 0.0
2017-Nov-10 16:59N 44°34' E 037°57'0 0.1
2017-Nov-10 16:29N 44°34' E 037°57'0 0.0
2017-Nov-10 15:59N 44°34' E 037°57'0 0.0
2017-Nov-10 15:26N 44°34' E 037°57'0 0.0
2017-Nov-10 14:56N 44°34' E 037°57'0 0.0
2017-Nov-10 14:29N 44°34' E 037°57'0 0.0
2017-Nov-10 13:59N 44°34' E 037°57'0 0.0
2017-Nov-10 13:20N 44°34' E 037°57'0 0.0
2017-Nov-10 12:59N 44°34' E 037°57'0 0.0
2017-Nov-10 12:29N 44°34' E 037°57'0 0.0
2017-Nov-10 11:59N 44°34' E 037°57'0 0.0
2017-Nov-10 11:29N 44°34' E 037°57'0 0.0
2017-Nov-10 10:59N 44°34' E 037°57'0 0.0
2017-Nov-10 10:23N 44°34' E 037°57'0 0.0
2017-Nov-10 09:59N 44°34' E 037°57'0 0.0
2017-Nov-10 09:29N 44°34' E 037°57'0 0.0
2017-Nov-10 08:59N 44°34' E 037°57'0 0.0
2017-Nov-10 08:29N 44°34' E 037°57'0 0.0
2017-Nov-10 07:59N 44°34' E 037°57'0 0.0
2017-Nov-10 07:29N 44°34' E 037°57'0 0.0
2017-Nov-10 06:59N 44°34' E 037°57'0 0.0
2017-Nov-10 06:29N 44°34' E 037°57'0 0.0
2017-Nov-10 05:59N 44°34' E 037°57'0 0.0
2017-Nov-10 05:29N 44°34' E 037°57'0 0.0
2017-Nov-10 04:59N 44°34' E 037°57'0 0.0
2017-Nov-10 04:29N 44°34' E 037°57'0 0.0
2017-Nov-10 03:59N 44°34' E 037°57'0 0.0
2017-Nov-10 03:29N 44°34' E 037°57'0 0.0
2017-Nov-10 02:56N 44°34' E 037°57'0 0.0
2017-Nov-10 02:29N 44°34' E 037°57'0 0.0
2017-Nov-10 01:59N 44°34' E 037°57'0 0.0
2017-Nov-10 01:29N 44°34' E 037°57'0 0.0
2017-Nov-10 00:59N 44°34' E 037°57'0 0.0
2017-Nov-10 00:26N 44°34' E 037°57'0 0.0
2017-Nov-09 23:59N 44°34' E 037°57'0 0.0
2017-Nov-09 23:29N 44°34' E 037°57'0 0.0
2017-Nov-09 22:59N 44°34' E 037°57'0 0.0
2017-Nov-09 22:26N 44°34' E 037°57'0 0.0
2017-Nov-09 21:59N 44°34' E 037°57'0 0.1
2017-Nov-09 21:26N 44°34' E 037°57'0 0.0
2017-Nov-09 20:59N 44°34' E 037°57'0 0.0
2017-Nov-09 20:29N 44°34' E 037°57'0 0.0
2017-Nov-09 19:50N 44°34' E 037°57'0 0.0
2017-Nov-09 19:26N 44°34' E 037°57'0 0.0
2017-Nov-09 18:59N 44°34' E 037°57'0 0.0
2017-Nov-09 18:29N 44°34' E 037°57'0 0.0
2017-Nov-09 17:56N 44°34' E 037°57'0 0.0
2017-Nov-09 17:29N 44°34' E 037°57'0 0.0
2017-Nov-09 16:59N 44°34' E 037°57'0 0.0
2017-Nov-09 16:29N 44°34' E 037°57'0 0.0
2017-Nov-09 15:59N 44°34' E 037°57'0 0.0
2017-Nov-09 15:29N 44°34' E 037°57'0 0.0
2017-Nov-09 14:59N 44°34' E 037°57'0 0.0
2017-Nov-09 14:29N 44°34' E 037°57'0 0.0
2017-Nov-09 13:59N 44°34' E 037°57'0 0.0
2017-Nov-09 13:29N 44°34' E 037°57'0 0.0
2017-Nov-09 12:59N 44°34' E 037°57'0 0.0
2017-Nov-09 12:29N 44°34' E 037°57'0 0.0
2017-Nov-09 11:56N 44°34' E 037°57'0 0.0
2017-Nov-09 11:29N 44°34' E 037°57'0 0.0
2017-Nov-09 10:56N 44°34' E 037°57'0 0.0
2017-Nov-09 10:29N 44°34' E 037°57'0 0.0
2017-Nov-09 09:59N 44°34' E 037°57'0 0.0
2017-Nov-09 09:29N 44°34' E 037°57'0 0.0
2017-Nov-09 08:59N 44°34' E 037°57'0 0.0
2017-Nov-09 08:29N 44°34' E 037°57'0 0.0
2017-Nov-09 07:59N 44°34' E 037°57'  

Dump ship's entire track history